LIRNLGKR

Guest
Details From LIRN - Naples Capodichino
To LGKR - IOANNIS KAPODISTRIAS INTL
Flight Number -
Tags generated
Created
Modified
Stats Distance 277 nm / 513 km
Max Altitude 31,000 ft / 9,449 m
Waypoints 5
Social Downloads 14
Likes 0
Share

Download

Looking for another format? Having issues loading an existing format? Contact us
Advertisement - Login to hide

Notes

Basic altitude profile: - Ascent Rate: 2500ft/min - Ascent Speed: 250kts - Cruise Altitude: 35000ft - Cruise Speed: 420kts - Descent Rate: 1500ft/min - Descent Speed: 250kts Options: - Use NATs: yes - Use PACOTS: yes - Use low airways: yes - Use high airways: yes

Route

LIRN MATED UM603 BRD LGKR

ID Type Via Altitude (ft/m) Position (lat/lon) Dist (leg/tot) Name
O LIRN APT - 0 / 0 40.88603 / 14.29078 - / 0 nm Naples Capodichino
MATED FIX - 31,000 / 9,449 40.61056 / 16.16833 87 / 87 nm
MOKTO FIX UM603 (AWY-HI) 29,900 / 9,114 40.61444 / 17.17417 45 / 132 nm
BRD VOR UM603 (AWY-HI) 21,800 / 6,645 40.61083 / 18.00278 37 / 170 nm BRINDISI VORTAC
O LGKR APT - 0 / 0 39.60178 / 19.91191 106 / 277 nm IOANNIS KAPODISTRIAS INTL

Altitude Profile

Advertisement - Login to hide

Weather


0- 5 10 15 20 25 30 35+ Temperature / °C

Clouds and Precipitation
Forecast for 2020-11-01 00:00 UTC. Updated an hour ago

Ground ~20,000 ft ~40,000 ft Winds

LIRN

Details ICAO LIRN (NAP)
Name Napoli-Capodichino "Ugo Niutta"
Region Italy
Timezone Europe/Rome (UTC+1.0)
Stats Elevation 292 ft / 89 m (AMSL)
Location 40.886000° 14.290800°
Runways 1
Magnetic Variation 3.603° E

METAR

LIRN 312220Z VRB01KT 5000 BR FEW020 12/11 Q1023 NOSIG

Decode

TAF

TAF LIRN 311700Z 3118/0118 VRB05KT 9999 SCT015

Decode

Departure Runways

ID Width Length Bearing (true/mag) Surface Threshold Overrun Markings Lighting
06 148 ft / 45 m 8,630 ft / 2,630 m 58.04° / 54.43° ASPHALT 1,312 ft / 400 m 217 ft / 66 m PREC-APP CENTERLINE EDGE THRESHOLD MALSF REIL-OMNI
24 148 ft / 45 m 8,630 ft / 2,630 m 238.05° / 234.45° ASPHALT 607 ft / 185 m 230 ft / 70 m PREC-APP CENTERLINE EDGE THRESHOLD MALSF REIL-OMNI

LGKR

Details ICAO LGKR (CFU)
Name IOANNIS KAPODISTRIAS INTL
Region Greece
Timezone Europe/Athens (UTC+2.0)
Stats Elevation 0 ft / 0 m (AMSL)
Location 39.602300° 19.912000°
Runways 1
Magnetic Variation 4.385° E

METAR

LGKR 312220Z 00000KT CAVOK 15/13 Q1019 NOSIG

Decode

TAF

TAF LGKR 311700Z 3118/0118 VRB05KT 9999 FEW020 BECMG 0112/0114 12010KT

Decode

Destination Runways

ID Width Length Bearing (true/mag) Surface Threshold Overrun Markings Lighting
17 148 ft / 45 m 7,604 ft / 2,318 m 168.78° / 164.40° ASPHALT 1,342 ft / 409 m 0 ft / 0 m PREC-APP EDGE THRESHOLD ALSF-I
35 148 ft / 45 m 7,604 ft / 2,318 m 348.79° / 344.40° ASPHALT 0 ft / 0 m 0 ft / 0 m PREC-APP EDGE THRESHOLD SALS REIL-OMNI

Popular Alternatives